Kezdőlap
METAR-TAF:

METAR-TAF

Repülőterek :

Thule, Grönland

földrajzi szélesség: 76-32N, földrajzi hosszúság: 068-42W, magasság: 77 m

Jelenlegi meteorológiai megfigyelések

A jelentés 29 perccel ezelõtt készült, 09:56 UTC
Kelet-délkeleti szél 6 kt
Hőmérséklet -23°C
Páratartalom 70%
Légköri nyomás 1009 hPa
Látótávolság 10 km, vagy több
Derült ég

METAR: BGTL 090956Z AUTO 12006KT 9999 CLR M23/M27 A2981 RMK AO2 SLP086 T12331267 TSNO $

Idő: 06:25 (10:25 UTC)

Előrejelzés

A jelentés 25 perccel ezelõtt készült, 10:00 UTC
Az előrejelzés 09-én 10 óra UTC és 10-én 16 óra UTC között érvényes
Keleti szél 9 kt
Látótávolság: 0912 m
Derült ég

TAF: BGTL 091000Z 0910/1016 10009KT 9999 SKC QNH2954INS TXM22/0912Z TNM31/1000Z LIMITED METWATCH 0910 TIL 0912

Meteorológiai megfigyelések és előrejelzések több, mint 4000 repülőtéren (METAR és TAF jelentéseket).

A térképen piros és sárga pontok jelzik az elérhető meteorológiai állomásokat.

Mozgassa az egeret a pont fölött, hogy megjelenjen az állomás neve.

Azután kattintson az időjárási megfigyelések és előrejelzések megtekintéséhez.

A térkép megváltoztatása: kattintson a fekete keresztel jelölt zöld gombra ráközelítéshez, a vonallal jelölt zöld gombra távolításhoz, vagy a zöld nyilakra a szomszédos térképek eléréséhez.


METAR-TAF: